Report METAR

 

KSJC - San Jose, California, USA
Distance from station: NE 14km
Dati ricevuti: 23/07/2024 20:53
Few Clouds
Few Clouds
 Vento da calmo
Vento: Calma
Temperatura: 32°C
P.to Rugiada: 16°C
Umidità: 38%
Barometro: 1011.5 hPa
Nuvole: Few Clouds
Visibility: 16 km
Cloud details: Few Clouds 2896 m
2024/07/23 18:53 KSJC 231853Z 00000KT 10SM FEW095 32/16 A2987 RMK AO2 SLP113 T03220161
KNUQ - Moffett Nas/Mtn, California, USA
Distance from station: N 14km
Dati ricevuti: 23/07/2024 20:50
Sereno
Sereno
 Vento da N
Vento: N 11 km/h
Temperatura: 27°C
Indice di Calore: 28°C
P.to Rugiada: 17°C
Umidità: 54%
Barometro: 1011.5 hPa
Nuvole: Sereno
Visibility: 16 km
2024/07/23 18:50 KNUQ 231850Z AUTO 35006KT 10SM CLR 27/17 A2987 RMK AO2
 
KPAO - Palo Alto, California, USA
Distance from station: NNO 23km
Dati ricevuti: 23/07/2024 20:47
Sereno
Sereno
 Vento da N
Vento: N 9 km/h
Temperatura: 26°C
P.to Rugiada: 18°C
Umidità: 61%
Barometro: 1011.9 hPa
Nuvole: Sereno
Visibility: 16 km
2024/07/23 18:47 KPAO 231847Z 36005KT 10SM SKC 26/18 A2988
KRHV - San Jose/Reid, California, USA
Distance from station: ENE 19km
Dati ricevuti: 23/07/2024 20:47
Sereno
Sereno
 Vento da calmo
Vento: Calma
Temperatura: 33°C
P.to Rugiada: 13°C
Umidità: 30%
Barometro: 1011.9 hPa
Nuvole: Sereno
Visibility: 16 km
2024/07/23 18:47 KRHV 231847Z 00000KT 10SM SKC 33/13 A2988
 
KOAK - Oakland, California, USA
Distance from station: NNO 50km
Dati ricevuti: 23/07/2024 20:53
Few Clouds
Few Clouds
 Vento da NO
Vento: NO 13 km/h
Temperatura: 28°C
Indice di Calore: 28°C
P.to Rugiada: 14°C
Umidità: 42%
Barometro: 1011.9 hPa
Nuvole: Few Clouds
Visibility: 16 km
Cloud details: Few Clouds 5486 m
Few Clouds 7620 m
2024/07/23 18:53 KOAK 231853Z 31007KT 10SM FEW180 FEW250 28/14 A2988 RMK AO2 SLP120 T02830144
KSQL - San Carlos Airpo, California, USA
Distance from station: NO 34km
Dati ricevuti: 23/07/2024 20:47
Sereno
Sereno
 Vento da NNO
Vento: NNO 15 km/h
Temperatura: 27°C
Indice di Calore: 28°C
P.to Rugiada: 17°C
Umidità: 54%
Barometro: 1011.9 hPa
Nuvole: Sereno
Visibility: 16 km
2024/07/23 18:47 KSQL 231847Z 34008KT 10SM CLR 27/17 A2988
 
KSFO - San Francisco, California, USA
Distance from station: NO 49km
Dati ricevuti: 23/07/2024 20:56
Few Clouds
Few Clouds
 Vento da NNE
Vento: NNE 13 km/h
Temperatura: 23°C
P.to Rugiada: 17°C
Umidità: 69%
Barometro: 1011.9 hPa
Nuvole: Few Clouds
Visibility: 16 km
Cloud details: Few Clouds 7620 m
2024/07/23 18:56 KSFO 231856Z 02007KT 10SM FEW250 23/17 A2988 RMK AO2 SLP117 T02330167
KE16 - San Martin, California, USA
Distance from station: ESE 43km
Dati ricevuti: 23/07/2024 20:35
Sereno
Sereno
 Vento da ESE
Vento: ESE 13 km/h
Temperatura: 31°C
P.to Rugiada: 9°C
Umidità: 25%
Barometro: 1012.5 hPa
Nuvole: Sereno
Visibility: 16 km
2024/07/23 18:35 KE16 231835Z AUTO 12007KT 10SM CLR 31/09 A2990 RMK AO2
 
KWVI - Watsonville, California, USA
Distance from station: SSE 44km
Dati ricevuti: 23/07/2024 20:53
Sereno
Sereno
 Vento da Variabile
Vento: Variabile 11 km/h
Temperatura: 24°C
P.to Rugiada: 14°C
Umidità: 54%
Barometro: 1013.5 hPa
Nuvole: Sereno
Visibility: 16 km
2024/07/23 18:53 KWVI 231853Z AUTO VRB06KT 10SM CLR 24/14 A2993 RMK AO2 SLP133 T02440139
KHAF - Half Moon Bay, California, USA
Distance from station: ONO 50km
Dati ricevuti: 23/07/2024 20:55
Sereno
Sereno
 Vento da SSE
Vento: SSE 19 km/h
Temperatura: 16°C
P.to Rugiada: 14°C
Umidità: 88%
Barometro: 1013.5 hPa
Nuvole: Sereno
Visibility: 14 km
2024/07/23 18:55 KHAF 231855Z AUTO 16010KT 9SM CLR 16/14 A2993 RMK AO2
 
KHWD - Hayward, California, USA
Distance from station: N 44km
Dati ricevuti: 23/07/2024 20:54
Sereno
Sereno
 Vento da ONO
Vento: ONO 9 km/h
Temperatura: 29°C
Indice di Calore: 28°C
P.to Rugiada: 14°C
Umidità: 40%
Barometro: 1011.5 hPa
Nuvole: Sereno
Visibility: 16 km
2024/07/23 18:54 KHWD 231854Z 30005KT 10SM CLR 29/14 A2987 RMK AO2 SLP123 T02940144 $
KLVK - Livermore, California, USA
Distance from station: NNE 51km
Dati ricevuti: 23/07/2024 20:53
Sereno
Sereno
 Vento da O
Vento: O 9 km/h
Temperatura: 37°C
P.to Rugiada: 11°C
Umidità: 21%
Barometro: 1011.2 hPa
Nuvole: Sereno
Visibility: 16 km
2024/07/23 18:53 KLVK 231853Z 26005KT 10SM CLR 37/11 A2986 RMK AO2 SLP103 T03670111